createdAt,value
2022-10-08T00:01:08.493Z,2.60
2022-10-08T00:03:40.624Z,2.83
2022-10-08T00:06:12.341Z,2.45
2022-10-08T00:08:41.311Z,2.40
2022-10-08T00:11:09.956Z,2.70
2022-10-08T00:13:41.653Z,2.30
2022-10-08T00:18:51.944Z,4.15
2022-10-08T00:21:33.468Z,3.03
2022-10-08T00:24:01.585Z,3.15
2022-10-08T00:26:31.222Z,3.60
2022-10-08T00:28:59.647Z,3.20
2022-10-08T00:31:37.858Z,3.00
2022-10-08T00:34:08.200Z,3.88
2022-10-08T00:36:37.183Z,3.85
2022-10-08T00:39:16.035Z,5.03
2022-10-08T00:41:44.829Z,5.00
2022-10-08T00:44:54.876Z,3.83
2022-10-08T00:47:47.448Z,3.63
2022-10-08T00:50:24.791Z,3.15
2022-10-08T00:53:04.302Z,2.42
2022-10-08T00:58:20.171Z,3.60
2022-10-08T01:00:58.543Z,3.63
2022-10-08T01:03:25.112Z,2.88
2022-10-08T01:09:01.560Z,2.67
2022-10-08T01:11:37.343Z,3.88
2022-10-08T01:14:23.057Z,3.45
2022-10-08T01:19:25.672Z,3.08
2022-10-08T01:22:10.553Z,3.55
2022-10-08T01:25:06.474Z,2.90
2022-10-08T01:33:12.420Z,3.85
2022-10-08T01:35:44.679Z,3.90
2022-10-08T01:38:16.146Z,3.45
2022-10-08T01:40:44.348Z,3.30
2022-10-08T01:43:13.400Z,3.40
2022-10-08T01:45:45.990Z,3.17
2022-10-08T01:48:15.373Z,3.55
2022-10-08T01:50:47.915Z,3.47
2022-10-08T01:53:16.282Z,3.00
2022-10-08T01:55:47.572Z,2.97
2022-10-08T01:58:17.636Z,2.97
2022-10-08T02:00:45.777Z,3.15
2022-10-08T02:03:12.414Z,4.28
2022-10-08T02:05:41.821Z,2.78
2022-10-08T02:08:08.312Z,2.70
2022-10-08T02:10:34.853Z,3.33
2022-10-08T02:13:01.367Z,2.85
2022-10-08T02:16:17.331Z,2.67
2022-10-08T02:18:53.398Z,3.00
2022-10-08T02:21:24.552Z,3.03
2022-10-08T02:26:40.538Z,2.95
2022-10-08T02:29:15.687Z,3.03
2022-10-08T02:31:49.812Z,3.60
2022-10-08T02:34:21.143Z,3.10
2022-10-08T02:37:01.804Z,3.13
2022-10-08T02:39:29.925Z,3.65
2022-10-08T02:42:01.250Z,3.10
2022-10-08T02:44:34.611Z,3.25
2022-10-08T02:47:04.346Z,3.33
2022-10-08T02:52:20.467Z,3.15
2022-10-08T02:54:48.306Z,3.03
2022-10-08T02:57:18.514Z,3.35
2022-10-08T02:59:45.651Z,3.03
2022-10-08T03:04:58.714Z,2.88
2022-10-08T03:07:31.102Z,3.72
2022-10-08T03:09:58.342Z,3.50
2022-10-08T03:12:27.882Z,3.03
2022-10-08T03:14:54.378Z,3.53
2022-10-08T03:17:30.579Z,2.60
2022-10-08T03:19:57.558Z,3.30
2022-10-08T03:27:45.953Z,3.00
2022-10-08T03:30:13.050Z,2.97
2022-10-08T03:32:39.544Z,3.75
2022-10-08T03:35:06.088Z,2.75
2022-10-08T03:37:32.590Z,3.10
2022-10-08T03:39:59.059Z,2.88
2022-10-08T03:42:25.644Z,2.92
2022-10-08T03:47:41.072Z,3.15
2022-10-08T03:50:08.001Z,2.63
2022-10-08T03:52:34.514Z,2.85
2022-10-08T03:55:00.999Z,2.75
2022-10-08T03:57:27.501Z,2.70
2022-10-08T03:59:54.264Z,2.65
2022-10-08T04:05:04.805Z,2.22
2022-10-08T04:07:31.273Z,2.13
2022-10-08T04:09:57.775Z,2.47
2022-10-08T04:12:24.364Z,2.53
2022-10-08T04:14:50.819Z,2.03
2022-10-08T04:17:17.643Z,2.08
2022-10-08T04:19:44.129Z,1.70
2022-10-08T04:22:10.609Z,2.45
2022-10-08T04:24:37.374Z,1.70
2022-10-08T04:27:03.927Z,1.98
2022-10-08T04:29:30.499Z,1.70
2022-10-08T04:31:57.005Z,1.90
2022-10-08T04:34:23.518Z,2.72
2022-10-08T04:36:50.020Z,2.13
2022-10-08T04:39:16.572Z,1.45
2022-10-08T04:41:43.132Z,2.60
2022-10-08T04:44:09.615Z,1.58
2022-10-08T04:46:36.197Z,2.25
2022-10-08T04:49:02.774Z,1.70
2022-10-08T04:51:29.795Z,2.30
2022-10-08T04:56:37.767Z,1.63
2022-10-08T04:59:04.664Z,1.77
2022-10-08T05:01:31.251Z,2.53
2022-10-08T05:03:58.974Z,2.00
2022-10-08T05:06:28.085Z,2.53
2022-10-08T05:08:54.807Z,2.80
2022-10-08T05:11:24.590Z,1.88
2022-10-08T05:13:55.299Z,2.15
2022-10-08T05:16:22.507Z,2.15
2022-10-08T05:18:51.677Z,1.83
2022-10-08T05:21:21.628Z,1.42
2022-10-08T05:23:48.422Z,2.20
2022-10-08T05:26:19.825Z,1.98
2022-10-08T05:28:47.737Z,1.85
2022-10-08T05:31:15.555Z,1.95
2022-10-08T05:33:42.251Z,1.63
2022-10-08T05:36:14.969Z,1.80
2022-10-08T05:38:43.550Z,2.00
2022-10-08T05:41:16.741Z,1.60
2022-10-08T05:43:51.532Z,1.80
2022-10-08T05:46:18.528Z,1.60
2022-10-08T05:48:45.628Z,1.75
2022-10-08T05:51:15.988Z,1.95
2022-10-08T05:53:47.228Z,2.05
2022-10-08T05:56:15.046Z,2.33
2022-10-08T05:58:42.671Z,2.00
2022-10-08T06:01:20.345Z,1.63
2022-10-08T06:04:07.837Z,2.10
2022-10-08T06:06:36.704Z,2.08
2022-10-08T06:09:04.083Z,2.40
2022-10-08T06:11:32.810Z,2.20
2022-10-08T06:14:04.703Z,1.92
2022-10-08T06:16:31.285Z,2.17
2022-10-08T06:21:38.442Z,1.50
2022-10-08T06:24:16.236Z,1.75
2022-10-08T06:26:44.025Z,1.80
2022-10-08T06:29:18.008Z,1.35
2022-10-08T06:31:45.627Z,1.52
2022-10-08T06:34:12.364Z,1.40
2022-10-08T06:36:39.452Z,1.95
2022-10-08T06:39:12.603Z,2.17
2022-10-08T06:41:39.089Z,1.50
2022-10-08T06:44:07.796Z,1.50
2022-10-08T06:49:15.706Z,2.22
2022-10-08T06:51:42.190Z,2.40
2022-10-08T06:54:08.935Z,2.05
2022-10-08T06:56:37.406Z,2.30
2022-10-08T06:59:04.901Z,1.98
2022-10-08T07:04:11.891Z,2.30
2022-10-08T07:06:38.429Z,2.58
2022-10-08T07:09:07.110Z,2.13
2022-10-08T07:11:41.425Z,2.10
2022-10-08T07:14:07.936Z,1.52
2022-10-08T07:16:34.484Z,1.95
2022-10-08T07:24:25.051Z,2.05
2022-10-08T07:26:51.674Z,2.47
2022-10-08T07:32:06.503Z,3.33
2022-10-08T07:34:33.004Z,2.40
2022-10-08T07:36:59.500Z,1.90
2022-10-08T07:39:26.060Z,2.05
2022-10-08T07:41:52.586Z,2.30
2022-10-08T07:44:19.467Z,1.85
2022-10-08T07:46:48.500Z,1.88
2022-10-08T07:49:19.384Z,1.88
2022-10-08T07:51:46.357Z,2.08
2022-10-08T07:54:17.749Z,1.70
2022-10-08T07:56:44.792Z,2.55
2022-10-08T07:59:17.945Z,1.60
2022-10-08T08:04:26.065Z,2.22
2022-10-08T08:06:52.682Z,1.40
2022-10-08T08:11:59.851Z,1.38
2022-10-08T08:19:48.030Z,1.92
2022-10-08T08:22:14.666Z,2.40
2022-10-08T08:29:46.801Z,2.75
2022-10-08T08:32:28.431Z,1.90
2022-10-08T08:34:55.279Z,2.08
2022-10-08T08:37:21.802Z,2.28
2022-10-08T08:39:56.152Z,2.22
2022-10-08T08:42:47.042Z,1.88
2022-10-08T08:45:46.571Z,1.80
2022-10-08T08:48:23.117Z,2.03
2022-10-08T08:53:35.209Z,1.70
2022-10-08T08:56:05.460Z,2.83
2022-10-08T08:58:42.196Z,2.13
2022-10-08T09:01:08.698Z,2.20
2022-10-08T09:03:44.781Z,2.15
2022-10-08T09:06:17.322Z,2.13
2022-10-08T09:08:48.440Z,1.42
2022-10-08T09:11:16.717Z,1.35
2022-10-08T09:13:57.929Z,2.03
2022-10-08T09:16:27.300Z,2.65
2022-10-08T09:18:54.623Z,2.22
2022-10-08T09:21:21.251Z,1.80
2022-10-08T09:23:48.053Z,2.00
2022-10-08T09:26:29.539Z,2.05
2022-10-08T09:29:00.746Z,1.80
2022-10-08T09:31:30.289Z,1.30
2022-10-08T09:34:21.503Z,2.38
2022-10-08T09:37:01.191Z,1.80
2022-10-08T09:39:30.281Z,1.98
2022-10-08T09:42:23.254Z,1.90
2022-10-08T09:44:51.895Z,1.88
2022-10-08T09:47:20.397Z,1.42
2022-10-08T09:49:50.070Z,1.60
2022-10-08T09:55:10.399Z,1.17
2022-10-08T09:57:44.235Z,1.40
2022-10-08T10:00:27.293Z,1.30
2022-10-08T10:05:36.890Z,1.20
2022-10-08T10:08:05.169Z,1.90
2022-10-08T10:10:39.278Z,1.52
2022-10-08T10:13:21.563Z,1.30
2022-10-08T10:15:55.837Z,1.75
2022-10-08T10:18:30.357Z,1.85
2022-10-08T10:21:00.183Z,1.95
2022-10-08T10:23:33.848Z,1.58
2022-10-08T10:26:06.815Z,1.48
2022-10-08T10:28:43.551Z,1.65
2022-10-08T10:31:23.619Z,1.45
2022-10-08T10:42:31.993Z,1.70
2022-10-08T10:45:04.387Z,1.70
2022-10-08T10:47:32.366Z,1.52
2022-10-08T10:50:00.768Z,1.90
2022-10-08T10:52:39.325Z,1.48
2022-10-08T10:55:31.769Z,1.42
2022-10-08T10:58:30.015Z,1.60
2022-10-08T11:01:42.201Z,1.92
2022-10-08T11:04:11.395Z,2.13
2022-10-08T11:06:49.815Z,1.80
2022-10-08T11:09:25.264Z,2.13
2022-10-08T11:11:58.980Z,1.88
2022-10-08T11:14:53.477Z,2.05
2022-10-08T11:17:40.717Z,2.33
2022-10-08T11:20:09.973Z,1.50
2022-10-08T11:22:48.769Z,2.28
2022-10-08T11:25:55.204Z,1.90
2022-10-08T11:28:44.928Z,2.10
2022-10-08T11:31:48.249Z,1.77
2022-10-08T11:37:26.531Z,1.83
2022-10-08T11:42:36.733Z,2.13
2022-10-08T11:45:24.160Z,2.47
2022-10-08T11:50:37.964Z,2.42
2022-10-08T11:53:10.711Z,2.45
2022-10-08T11:55:37.917Z,2.00
2022-10-08T11:58:08.378Z,1.98
2022-10-08T12:00:40.046Z,2.00
2022-10-08T12:06:28.623Z,2.28
2022-10-08T12:11:40.678Z,1.52
2022-10-08T12:14:13.408Z,1.85
2022-10-08T12:16:48.950Z,2.50
2022-10-08T12:19:36.504Z,1.50
2022-10-08T12:22:15.136Z,1.60
2022-10-08T12:27:26.567Z,1.67
2022-10-08T12:30:09.552Z,1.95
2022-10-08T12:32:42.253Z,1.92
2022-10-08T12:35:27.178Z,2.00
2022-10-08T12:38:18.294Z,1.80
2022-10-08T12:40:52.637Z,1.77
2022-10-08T12:43:30.272Z,1.80
2022-10-08T12:46:21.603Z,2.00
2022-10-08T12:49:03.608Z,2.00
2022-10-08T12:51:44.143Z,1.92
2022-10-08T12:54:27.545Z,2.40
2022-10-08T12:57:01.940Z,1.40
2022-10-08T12:59:32.012Z,3.05
2022-10-08T13:01:59.155Z,1.75
2022-10-08T13:04:29.960Z,1.63
2022-10-08T13:09:37.038Z,1.85
2022-10-08T13:15:06.313Z,1.58
2022-10-08T13:17:34.765Z,1.60
2022-10-08T13:20:22.229Z,1.20
2022-10-08T13:25:43.242Z,2.00
2022-10-08T13:28:15.402Z,1.52
2022-10-08T13:30:46.583Z,1.38
2022-10-08T13:36:05.680Z,1.52
2022-10-08T13:38:43.085Z,1.20
2022-10-08T13:41:23.523Z,1.30
2022-10-08T13:43:50.236Z,1.40
2022-10-08T13:46:16.925Z,1.48
2022-10-08T13:48:46.142Z,2.08
2022-10-08T13:51:12.667Z,2.05
2022-10-08T13:53:46.505Z,1.42
2022-10-08T13:56:13.585Z,1.67
2022-10-08T13:58:40.071Z,1.67
2022-10-08T14:01:06.710Z,1.60
2022-10-08T14:03:33.247Z,1.75
2022-10-08T14:05:59.704Z,1.67
2022-10-08T14:08:33.330Z,2.17
2022-10-08T14:11:12.390Z,1.85
2022-10-08T14:13:45.322Z,2.00
2022-10-08T14:18:57.875Z,2.08
2022-10-08T14:21:25.785Z,1.90
2022-10-08T14:23:52.307Z,1.55
2022-10-08T14:26:19.013Z,2.10
2022-10-08T14:28:45.592Z,2.38
2022-10-08T14:31:13.570Z,2.00
2022-10-08T14:33:42.499Z,1.73
2022-10-08T14:36:15.604Z,1.60
2022-10-08T14:38:42.272Z,1.90
2022-10-08T14:41:08.822Z,1.80
2022-10-08T14:43:37.374Z,1.95
2022-10-08T14:48:44.542Z,1.95
2022-10-08T14:51:12.511Z,2.03
2022-10-08T14:53:39.279Z,2.33
2022-10-08T14:56:12.367Z,2.38
2022-10-08T14:58:39.711Z,3.55
2022-10-08T15:01:06.450Z,2.28
2022-10-08T15:03:33.227Z,2.22
2022-10-08T15:06:00.703Z,2.45
2022-10-08T15:08:31.189Z,2.22
2022-10-08T15:13:38.715Z,2.03
2022-10-08T15:16:09.419Z,2.13
2022-10-08T15:21:23.109Z,1.75
2022-10-08T15:23:50.176Z,1.95
2022-10-08T15:26:18.169Z,2.05
2022-10-08T15:28:49.970Z,2.20
2022-10-08T15:31:18.480Z,1.80
2022-10-08T15:34:00.101Z,2.40
2022-10-08T15:36:37.782Z,2.42
2022-10-08T15:41:54.316Z,2.10
2022-10-08T15:44:23.500Z,1.45
2022-10-08T15:46:59.118Z,1.75
2022-10-08T15:52:09.746Z,1.95
2022-10-08T15:54:37.131Z,3.05
2022-10-08T15:57:03.881Z,2.47
2022-10-08T15:59:30.895Z,3.30
2022-10-08T16:02:05.779Z,3.05
2022-10-08T16:04:32.658Z,2.35
2022-10-08T16:06:59.214Z,1.90
2022-10-08T16:09:25.828Z,2.60
2022-10-08T16:11:52.397Z,2.85
2022-10-08T16:14:21.247Z,2.05
2022-10-08T16:16:48.506Z,2.25
2022-10-08T16:19:17.455Z,1.83
2022-10-08T16:21:54.166Z,2.17
2022-10-08T16:24:20.816Z,2.92
2022-10-08T16:26:48.706Z,2.28
2022-10-08T16:29:16.620Z,2.28
2022-10-08T16:31:44.441Z,2.92
2022-10-08T16:34:28.078Z,2.00
2022-10-08T16:36:54.825Z,2.53
2022-10-08T16:39:24.218Z,2.45
2022-10-08T16:44:31.383Z,2.17
2022-10-08T16:46:57.846Z,2.30
2022-10-08T16:49:27.112Z,2.20
2022-10-08T16:51:56.134Z,1.98
2022-10-08T16:54:24.899Z,1.95
2022-10-08T16:56:51.530Z,2.75
2022-10-08T16:59:20.642Z,3.00
2022-10-08T17:01:50.608Z,2.72
2022-10-08T17:04:18.379Z,3.00
2022-10-08T17:06:45.532Z,2.35
2022-10-08T17:09:12.325Z,2.42
2022-10-08T17:11:39.428Z,2.65
2022-10-08T17:14:07.698Z,2.67
2022-10-08T17:16:35.127Z,3.20
2022-10-08T17:21:55.204Z,2.95
2022-10-08T17:24:22.130Z,2.80
2022-10-08T17:26:49.399Z,2.70
2022-10-08T17:29:15.931Z,3.30
2022-10-08T17:31:42.894Z,3.35
2022-10-08T17:34:10.171Z,3.50
2022-10-08T17:36:38.468Z,3.75
2022-10-08T17:39:06.566Z,4.10
2022-10-08T17:41:40.414Z,4.22
2022-10-08T17:44:08.563Z,9.95
2022-10-08T17:49:20.516Z,14.10
2022-10-08T17:51:47.630Z,8.63
2022-10-08T17:54:21.368Z,4.93
2022-10-08T17:56:48.566Z,5.38
2022-10-08T17:59:19.030Z,4.07
2022-10-08T18:01:49.863Z,5.22
2022-10-08T18:04:24.074Z,5.40
2022-10-08T18:06:50.602Z,5.65
2022-10-08T18:09:19.513Z,5.38
2022-10-08T18:11:48.958Z,4.57
2022-10-08T18:14:17.131Z,4.03
2022-10-08T18:16:47.835Z,4.57
2022-10-08T18:19:15.168Z,4.38
2022-10-08T18:27:02.897Z,3.70
2022-10-08T18:32:09.571Z,4.47
2022-10-08T18:37:22.152Z,4.55
2022-10-08T18:42:29.080Z,15.65
2022-10-08T18:44:55.583Z,22.13
2022-10-08T18:50:01.136Z,21.48
2022-10-08T18:55:08.434Z,6.55
2022-10-08T19:00:23.158Z,15.45
2022-10-08T19:02:55.106Z,7.82
2022-10-08T19:05:21.740Z,6.43
2022-10-08T19:07:48.204Z,6.43
2022-10-08T19:10:14.684Z,5.32
2022-10-08T19:12:41.167Z,5.40
2022-10-08T19:15:07.994Z,6.40
2022-10-08T19:17:34.707Z,9.10
2022-10-08T19:20:01.169Z,10.07
2022-10-08T19:22:27.653Z,11.23
2022-10-08T19:24:54.226Z,13.35
2022-10-08T19:27:20.934Z,8.35
2022-10-08T19:32:27.941Z,6.78
2022-10-08T19:34:54.428Z,6.72
2022-10-08T19:37:22.618Z,5.78
2022-10-08T19:39:53.491Z,5.70
2022-10-08T19:42:19.953Z,5.40
2022-10-08T19:44:46.515Z,12.15
2022-10-08T19:49:57.190Z,12.18
2022-10-08T19:52:23.723Z,11.20
2022-10-08T19:54:50.305Z,12.35
2022-10-08T19:59:57.727Z,8.52
2022-10-08T20:02:24.297Z,8.32
2022-10-08T20:04:50.951Z,15.95
2022-10-08T20:07:17.523Z,23.33
2022-10-08T20:09:44.059Z,9.85
2022-10-08T20:14:50.959Z,7.03
2022-10-08T20:17:18.400Z,6.45
2022-10-08T20:19:44.882Z,8.13
2022-10-08T20:22:12.102Z,7.93
2022-10-08T20:24:38.757Z,7.50
2022-10-08T20:27:05.341Z,7.95
2022-10-08T20:29:31.832Z,7.80
2022-10-08T20:31:59.863Z,9.10
2022-10-08T20:34:30.815Z,8.20
2022-10-08T20:37:02.431Z,8.48
2022-10-08T20:39:29.214Z,7.75
2022-10-08T20:41:56.045Z,9.30
2022-10-08T20:49:59.352Z,9.18
2022-10-08T20:57:47.874Z,10.80
2022-10-08T21:00:14.702Z,9.75
2022-10-08T21:02:41.189Z,7.57
2022-10-08T21:05:07.917Z,9.00
2022-10-08T21:07:38.188Z,8.15
2022-10-08T21:10:05.097Z,8.35
2022-10-08T21:12:32.292Z,8.25
2022-10-08T21:14:58.774Z,8.32
2022-10-08T21:17:25.253Z,8.65
2022-10-08T21:19:51.810Z,10.52
2022-10-08T21:22:18.288Z,10.45
2022-10-08T21:24:45.358Z,9.75
2022-10-08T21:32:34.173Z,9.13
2022-10-08T21:35:00.833Z,8.98
2022-10-08T21:37:27.398Z,8.10
2022-10-08T21:39:53.853Z,9.00
2022-10-08T21:42:28.333Z,8.93
2022-10-08T21:44:54.835Z,8.63
2022-10-08T21:47:25.157Z,9.23
2022-10-08T21:49:51.668Z,9.63
2022-10-08T22:00:19.327Z,10.25
2022-10-08T22:02:46.110Z,6.53
2022-10-08T22:07:53.285Z,5.85
2022-10-08T22:10:19.768Z,5.18
2022-10-08T22:12:46.471Z,5.22
2022-10-08T22:15:13.289Z,5.35
2022-10-08T22:17:39.763Z,4.65
2022-10-08T22:22:50.687Z,5.13
2022-10-08T22:25:17.461Z,4.60
2022-10-08T22:27:43.930Z,4.13
2022-10-08T22:30:14.385Z,4.70
2022-10-08T22:32:40.918Z,4.45
2022-10-08T22:40:44.017Z,3.90
2022-10-08T22:43:10.534Z,4.72
2022-10-08T22:45:38.889Z,4.03
2022-10-08T22:48:05.735Z,3.88
2022-10-08T22:50:38.727Z,3.38
2022-10-08T22:53:05.434Z,3.58
2022-10-08T22:55:32.003Z,5.38
2022-10-08T22:57:58.449Z,4.45
2022-10-08T23:00:25.844Z,4.57
2022-10-08T23:02:52.648Z,4.32
2022-10-08T23:05:19.266Z,4.40
2022-10-08T23:07:45.829Z,3.65
2022-10-08T23:10:12.484Z,4.03
2022-10-08T23:12:38.932Z,3.83
2022-10-08T23:15:05.986Z,3.97
2022-10-08T23:17:32.528Z,3.85
2022-10-08T23:22:39.689Z,4.82
2022-10-08T23:25:06.776Z,4.07
2022-10-08T23:27:33.317Z,4.28
2022-10-08T23:30:01.672Z,4.78
2022-10-08T23:32:28.185Z,4.68
2022-10-08T23:34:54.654Z,4.53
2022-10-08T23:37:21.195Z,4.85
2022-10-08T23:42:28.662Z,5.28
2022-10-08T23:44:55.187Z,4.72
2022-10-08T23:50:02.074Z,5.10
2022-10-08T23:52:28.579Z,4.82
2022-10-08T23:54:55.092Z,4.78
2022-10-08T23:57:26.553Z,4.10
2022-10-08T23:59:53.038Z,4.10
